createdAt,value
2018-03-04T00:00:50.942Z,93.72
2018-03-04T00:03:32.007Z,85.32
2018-03-04T00:05:58.068Z,96.45
2018-03-04T00:08:24.197Z,90.53
2018-03-04T00:10:50.274Z,88.22
2018-03-04T00:13:16.356Z,88.43
2018-03-04T00:15:42.414Z,84.28
2018-03-04T00:18:08.459Z,91.90
2018-03-04T00:20:34.524Z,95.45
2018-03-04T00:23:00.586Z,94.68
2018-03-04T00:25:26.643Z,89.55
2018-03-04T00:27:52.710Z,81.70
2018-03-04T00:30:18.758Z,88.90
2018-03-04T00:32:44.837Z,89.35
2018-03-04T00:35:14.003Z,92.90
2018-03-04T00:37:40.056Z,93.87
2018-03-04T00:40:06.116Z,96.37
2018-03-04T00:42:32.188Z,89.82
2018-03-04T00:44:59.008Z,90.50
2018-03-04T00:47:25.069Z,93.40
2018-03-04T00:49:51.126Z,86.10
2018-03-04T00:52:17.938Z,89.72
2018-03-04T00:54:43.990Z,91.28
2018-03-04T00:57:10.050Z,95.05
2018-03-04T00:59:36.851Z,89.35
2018-03-04T01:02:02.923Z,89.78
2018-03-04T01:04:29.038Z,95.55
2018-03-04T01:06:55.100Z,91.32
2018-03-04T01:09:21.171Z,91.57
2018-03-04T01:11:47.242Z,97.25
2018-03-04T01:14:13.298Z,99.20
2018-03-04T01:16:39.345Z,97.85
2018-03-04T01:19:05.390Z,99.65
2018-03-04T01:21:32.233Z,97.57
2018-03-04T01:24:24.350Z,95.43
2018-03-04T01:26:50.449Z,94.78
2018-03-04T01:29:16.535Z,103.72
2018-03-04T01:31:42.598Z,104.07
2018-03-04T01:34:09.385Z,104.90
2018-03-04T01:36:35.484Z,90.30
2018-03-04T01:39:02.310Z,91.37
2018-03-04T01:41:28.374Z,95.18
2018-03-04T01:43:55.174Z,94.90
2018-03-04T01:46:21.239Z,99.80
2018-03-04T01:48:47.286Z,97.07
2018-03-04T01:51:13.343Z,94.60
2018-03-04T01:53:40.141Z,103.53
2018-03-04T01:56:06.199Z,93.60
2018-03-04T01:58:32.314Z,103.05
2018-03-04T02:00:58.372Z,110.05
2018-03-04T02:03:24.422Z,98.45
2018-03-04T02:05:53.820Z,109.20
2018-03-04T02:08:19.882Z,103.30
2018-03-04T02:10:46.702Z,96.30
2018-03-04T02:13:12.760Z,102.57
2018-03-04T02:15:38.803Z,96.00
2018-03-04T02:18:04.855Z,106.30
2018-03-04T02:20:31.675Z,103.30
2018-03-04T02:22:57.710Z,94.40
2018-03-04T02:25:23.754Z,95.00
2018-03-04T02:27:49.810Z,99.60
2018-03-04T02:30:16.598Z,96.63
2018-03-04T02:32:42.656Z,98.43
2018-03-04T02:35:08.711Z,101.05
2018-03-04T02:37:34.783Z,104.15
2018-03-04T02:40:01.592Z,87.68
2018-03-04T02:42:27.659Z,102.65
2018-03-04T02:44:54.450Z,107.85
2018-03-04T02:47:20.516Z,95.12
2018-03-04T02:49:46.566Z,99.03
2018-03-04T02:52:12.619Z,102.35
2018-03-04T02:54:39.407Z,100.87
2018-03-04T02:57:05.470Z,102.80
2018-03-04T02:59:31.582Z,95.47
2018-03-04T03:01:58.370Z,79.22
2018-03-04T03:04:24.420Z,84.20
2018-03-04T03:06:50.460Z,91.80
2018-03-04T03:09:16.510Z,82.97
2018-03-04T03:11:43.306Z,79.95
2018-03-04T03:14:09.367Z,81.65
2018-03-04T03:16:35.413Z,80.30
2018-03-04T03:19:01.511Z,82.75
2018-03-04T03:21:27.579Z,82.70
2018-03-04T03:23:53.645Z,83.93
2018-03-04T03:26:20.425Z,76.57
2018-03-04T03:28:46.517Z,79.93
2018-03-04T03:31:12.623Z,87.53
2018-03-04T03:33:38.687Z,79.15
2018-03-04T03:36:04.742Z,90.20
2018-03-04T03:38:31.566Z,86.85
2018-03-04T03:40:58.322Z,80.30
2018-03-04T03:43:24.382Z,81.43
2018-03-04T03:45:51.178Z,84.97
2018-03-04T03:48:17.228Z,80.03
2018-03-04T03:50:43.293Z,83.95
2018-03-04T03:53:09.343Z,80.22
2018-03-04T03:55:36.155Z,88.18
2018-03-04T03:58:02.227Z,91.18
2018-03-04T04:00:29.037Z,74.12
2018-03-04T04:02:55.106Z,82.37
2018-03-04T04:05:21.167Z,80.57
2018-03-04T04:07:47.402Z,81.45
2018-03-04T04:10:13.807Z,78.00
2018-03-04T04:12:39.859Z,81.10
2018-03-04T04:15:06.085Z,72.72
2018-03-04T04:17:32.155Z,73.90
2018-03-04T04:19:58.239Z,73.32
2018-03-04T04:22:24.350Z,74.30
2018-03-04T04:24:50.425Z,77.80
2018-03-04T04:27:16.506Z,73.03
2018-03-04T04:29:42.562Z,79.32
2018-03-04T04:32:08.619Z,79.80
2018-03-04T04:34:34.660Z,74.12
2018-03-04T04:37:00.706Z,72.15
2018-03-04T04:39:26.758Z,67.03
2018-03-04T04:41:52.797Z,73.97
2018-03-04T04:44:18.829Z,67.00
2018-03-04T04:46:44.894Z,78.97
2018-03-04T04:49:10.942Z,79.70
2018-03-04T04:51:37.001Z,74.32
2018-03-04T04:54:03.083Z,68.12
2018-03-04T04:56:29.909Z,68.90
2018-03-04T04:58:55.982Z,69.12
2018-03-04T05:01:22.814Z,72.45
2018-03-04T05:03:48.858Z,66.28
2018-03-04T05:06:15.796Z,74.40
2018-03-04T05:08:41.863Z,77.82
2018-03-04T05:11:08.641Z,75.55
2018-03-04T05:13:34.696Z,74.45
2018-03-04T05:16:00.782Z,76.25
2018-03-04T05:18:27.575Z,69.00
2018-03-04T05:20:53.630Z,57.88
2018-03-04T05:23:19.690Z,65.35
2018-03-04T05:25:45.807Z,65.82
2018-03-04T05:28:11.863Z,85.70
2018-03-04T05:30:37.934Z,64.97
2018-03-04T05:33:04.003Z,67.00
2018-03-04T05:35:30.074Z,66.18
2018-03-04T05:37:56.138Z,68.62
2018-03-04T05:40:23.010Z,71.15
2018-03-04T05:42:49.074Z,68.62
2018-03-04T05:45:15.146Z,75.18
2018-03-04T05:47:41.954Z,61.80
2018-03-04T05:50:08.013Z,68.43
2018-03-04T05:52:34.130Z,67.70
2018-03-04T05:55:00.191Z,63.92
2018-03-04T05:57:26.246Z,67.25
2018-03-04T05:59:53.054Z,65.68
2018-03-04T06:02:19.614Z,61.55
2018-03-04T06:04:45.682Z,65.18
2018-03-04T06:07:11.753Z,67.05
2018-03-04T06:09:37.815Z,68.85
2018-03-04T06:12:03.886Z,65.05
2018-03-04T06:14:29.967Z,67.75
2018-03-04T06:16:56.074Z,71.25
2018-03-04T06:19:22.179Z,65.78
2018-03-04T06:21:48.279Z,62.50
2018-03-04T06:24:14.338Z,69.53
2018-03-04T06:26:40.428Z,64.28
2018-03-04T06:29:07.226Z,66.97
2018-03-04T06:31:33.285Z,66.18
2018-03-04T06:33:59.346Z,58.53
2018-03-04T06:36:26.146Z,56.78
2018-03-04T06:38:52.217Z,61.67
2018-03-04T06:41:18.283Z,62.00
2018-03-04T06:43:45.083Z,56.28
2018-03-04T06:46:12.634Z,59.22
2018-03-04T06:48:39.590Z,58.08
2018-03-04T06:51:05.662Z,57.62
2018-03-04T06:53:31.790Z,54.63
2018-03-04T06:55:57.890Z,56.60
2018-03-04T06:58:23.942Z,60.65
2018-03-04T07:00:49.998Z,60.00
2018-03-04T07:03:16.128Z,62.80
2018-03-04T07:05:42.367Z,60.90
2018-03-04T07:08:08.523Z,63.25
2018-03-04T07:10:35.433Z,66.25
2018-03-04T07:13:02.596Z,59.00
2018-03-04T07:15:28.700Z,60.78
2018-03-04T07:17:54.771Z,62.97
2018-03-04T07:20:28.793Z,59.30
2018-03-04T07:22:54.866Z,61.28
2018-03-04T07:25:21.802Z,60.78
2018-03-04T07:27:52.639Z,64.45
2018-03-04T07:30:18.706Z,65.62
2018-03-04T07:32:45.447Z,62.15
2018-03-04T07:35:14.540Z,58.42
2018-03-04T07:37:40.613Z,60.83
2018-03-04T07:40:07.498Z,62.05
2018-03-04T07:42:34.288Z,66.45
2018-03-04T07:48:01.457Z,63.58
2018-03-04T07:50:27.507Z,72.47
2018-03-04T07:52:53.584Z,66.85
2018-03-04T07:55:19.638Z,56.33
2018-03-04T07:57:46.488Z,61.05
2018-03-04T08:00:12.564Z,63.60
2018-03-04T08:02:38.645Z,60.22
2018-03-04T08:05:04.717Z,58.05
2018-03-04T08:07:31.514Z,62.28
2018-03-04T08:09:57.582Z,65.25
2018-03-04T08:12:23.651Z,65.62
2018-03-04T08:14:57.670Z,60.85
2018-03-04T08:17:33.348Z,61.67
2018-03-04T08:20:00.326Z,59.80
2018-03-04T08:22:27.651Z,63.78
2018-03-04T08:25:07.134Z,61.70
2018-03-04T08:27:46.760Z,56.42
2018-03-04T08:30:13.138Z,58.10
2018-03-04T08:32:39.681Z,57.13
2018-03-04T08:35:06.029Z,61.92
2018-03-04T08:37:33.496Z,55.90
2018-03-04T08:39:59.843Z,57.38
2018-03-04T08:42:26.109Z,67.72
2018-03-04T08:44:55.767Z,56.75
2018-03-04T08:47:22.774Z,54.60
2018-03-04T08:49:49.093Z,56.78
2018-03-04T08:52:16.088Z,56.78
2018-03-04T08:54:46.474Z,63.05
2018-03-04T08:57:13.443Z,52.60
2018-03-04T08:59:39.678Z,58.67
2018-03-04T09:05:06.655Z,48.83
2018-03-04T09:07:44.065Z,48.55
2018-03-04T09:10:13.071Z,49.75
2018-03-04T09:12:39.410Z,54.53
2018-03-04T09:15:05.678Z,49.45
2018-03-04T09:17:31.952Z,60.90
2018-03-04T09:19:58.233Z,48.28
2018-03-04T09:22:24.490Z,52.20
2018-03-04T09:24:51.486Z,58.45
2018-03-04T09:27:17.743Z,48.00
2018-03-04T09:29:44.857Z,52.62
2018-03-04T09:32:15.488Z,45.45
2018-03-04T09:34:42.709Z,44.38
2018-03-04T09:37:08.939Z,46.33
2018-03-04T09:39:36.255Z,42.85
2018-03-04T09:42:02.553Z,39.88
2018-03-04T09:44:32.141Z,46.60
2018-03-04T09:46:58.438Z,46.28
2018-03-04T09:49:31.011Z,39.03
2018-03-04T09:52:00.095Z,42.80
2018-03-04T09:54:27.129Z,41.30
2018-03-04T09:56:54.078Z,41.53
2018-03-04T09:59:20.339Z,48.90
2018-03-04T10:01:46.595Z,42.85
2018-03-04T10:04:12.821Z,43.08
2018-03-04T10:06:39.110Z,39.38
2018-03-04T10:09:05.342Z,45.63
2018-03-04T10:11:31.618Z,37.70
2018-03-04T10:13:57.932Z,37.35
2018-03-04T10:16:26.247Z,41.15
2018-03-04T10:19:08.050Z,36.75
2018-03-04T10:21:37.667Z,35.75
2018-03-04T10:24:03.722Z,36.20
2018-03-04T10:26:29.832Z,34.72
2018-03-04T10:28:55.896Z,40.42
2018-03-04T10:31:21.963Z,38.08
2018-03-04T10:33:48.047Z,35.47
2018-03-04T10:36:14.121Z,33.28
2018-03-04T10:38:40.178Z,36.55
2018-03-04T10:41:07.281Z,39.03
2018-03-04T10:43:45.508Z,33.80
2018-03-04T10:46:11.572Z,38.03
2018-03-04T10:48:53.157Z,37.08
2018-03-04T10:51:19.221Z,40.00
2018-03-04T10:53:45.351Z,36.03
2018-03-04T10:56:11.430Z,37.15
2018-03-04T10:58:38.227Z,36.20
2018-03-04T11:01:09.434Z,33.88
2018-03-04T11:03:36.262Z,28.45
2018-03-04T11:06:02.739Z,37.25
2018-03-04T11:08:28.848Z,31.62
2018-03-04T11:10:54.942Z,35.70
2018-03-04T11:13:21.033Z,36.70
2018-03-04T11:15:47.856Z,32.58
2018-03-04T11:18:13.904Z,29.77
2018-03-04T11:20:39.955Z,26.80
2018-03-04T11:23:06.766Z,30.33
2018-03-04T11:25:32.867Z,29.12
2018-03-04T11:27:59.686Z,28.85
2018-03-04T11:30:25.756Z,28.48
2018-03-04T11:32:51.830Z,27.67
2018-03-04T11:35:17.955Z,26.65
2018-03-04T11:37:44.022Z,25.02
2018-03-04T11:40:10.079Z,19.77
2018-03-04T11:42:36.890Z,29.77
2018-03-04T11:45:03.711Z,30.00
2018-03-04T11:47:29.826Z,25.55
2018-03-04T11:49:56.623Z,30.05
2018-03-04T11:52:22.743Z,28.67
2018-03-04T11:54:48.810Z,25.83
2018-03-04T11:57:14.877Z,24.98
2018-03-04T11:59:41.887Z,25.83
2018-03-04T12:02:07.949Z,19.55
2018-03-04T12:04:34.018Z,21.87
2018-03-04T12:07:00.111Z,23.77
2018-03-04T12:09:26.234Z,22.27
2018-03-04T12:11:52.258Z,18.10
2018-03-04T12:14:18.325Z,17.85
2018-03-04T12:16:44.837Z,20.55
2018-03-04T12:19:10.962Z,20.80
2018-03-04T12:21:37.126Z,24.05
2018-03-04T12:24:03.206Z,17.70
2018-03-04T12:26:30.131Z,18.42
2018-03-04T12:28:56.210Z,19.65
2018-03-04T12:31:28.803Z,19.80
2018-03-04T12:33:55.677Z,24.73
2018-03-04T12:36:21.815Z,21.75
2018-03-04T12:38:47.890Z,19.50
2018-03-04T12:41:13.977Z,16.40
2018-03-04T12:43:40.829Z,20.45
2018-03-04T12:46:31.883Z,19.80
2018-03-04T12:48:57.979Z,17.50
2018-03-04T12:51:24.810Z,18.75
2018-03-04T12:53:50.921Z,18.27
2018-03-04T12:56:17.055Z,18.15
2018-03-04T12:58:43.144Z,16.50
2018-03-04T13:01:26.514Z,17.10
2018-03-04T13:03:58.968Z,14.95
2018-03-04T13:06:29.536Z,18.95
2018-03-04T13:08:55.947Z,15.52
2018-03-04T13:11:22.291Z,16.30
2018-03-04T13:13:48.632Z,13.68
2018-03-04T13:16:15.019Z,13.98
2018-03-04T13:18:41.346Z,16.73
2018-03-04T13:21:07.639Z,16.50
2018-03-04T13:23:34.030Z,12.63
2018-03-04T13:26:00.334Z,15.27
2018-03-04T13:28:29.687Z,13.37
2018-03-04T13:30:56.046Z,11.10
2018-03-04T13:33:28.796Z,8.80
2018-03-04T13:36:02.577Z,8.47
2018-03-04T13:38:32.071Z,8.73
2018-03-04T13:40:58.375Z,12.20
2018-03-04T13:43:24.639Z,11.33
2018-03-04T13:45:51.682Z,12.93
2018-03-04T13:48:17.944Z,7.73
2018-03-04T13:50:44.962Z,7.83
2018-03-04T13:53:12.315Z,6.67
2018-03-04T13:55:38.602Z,7.00
2018-03-04T13:58:05.642Z,11.12
2018-03-04T14:00:31.938Z,5.83
2018-03-04T14:02:58.232Z,4.50
2018-03-04T14:05:24.683Z,7.90
2018-03-04T14:07:50.997Z,5.13
2018-03-04T14:10:20.753Z,5.37
2018-03-04T14:12:47.099Z,6.77
2018-03-04T14:15:13.460Z,7.40
2018-03-04T14:17:39.772Z,6.57
2018-03-04T14:20:06.091Z,4.77
2018-03-04T14:22:33.113Z,19.70
2018-03-04T14:24:59.392Z,6.90
2018-03-04T14:27:25.690Z,9.50
2018-03-04T14:29:52.135Z,10.00
2018-03-04T14:32:18.507Z,8.63
2018-03-04T14:37:29.741Z,10.27
2018-03-04T14:39:56.064Z,7.30
2018-03-04T14:42:22.356Z,7.60
2018-03-04T14:48:01.720Z,7.57
2018-03-04T14:50:30.106Z,8.50
2018-03-04T14:52:57.316Z,8.57
2018-03-04T14:55:23.660Z,10.37
2018-03-04T14:57:49.957Z,14.00
2018-03-04T15:00:18.200Z,12.57
2018-03-04T15:02:44.494Z,11.30
2018-03-04T15:05:14.713Z,9.30
2018-03-04T15:07:41.028Z,10.07
2018-03-04T15:10:07.358Z,9.70
2018-03-04T15:12:34.241Z,13.73
2018-03-04T15:15:00.547Z,15.15
2018-03-04T15:17:27.236Z,13.93
2018-03-04T15:19:54.290Z,13.07
2018-03-04T15:22:20.734Z,12.25
2018-03-04T15:24:47.425Z,13.80
2018-03-04T15:27:13.784Z,13.40
2018-03-04T15:29:40.215Z,12.20
2018-03-04T15:32:06.586Z,15.73
2018-03-04T15:34:32.916Z,13.60
2018-03-04T15:36:59.280Z,16.25
2018-03-04T15:39:25.929Z,18.42
2018-03-04T15:41:52.323Z,14.87
2018-03-04T15:44:18.619Z,14.20
2018-03-04T15:46:44.966Z,14.98
2018-03-04T15:49:12.057Z,14.23
2018-03-04T15:51:38.409Z,16.62
2018-03-04T15:54:06.064Z,13.85
2018-03-04T15:56:33.612Z,17.30
2018-03-04T15:59:00.034Z,18.62
2018-03-04T16:01:26.348Z,16.50
2018-03-04T16:03:52.785Z,16.58
2018-03-04T16:06:19.120Z,14.98
2018-03-04T16:08:45.456Z,14.20
2018-03-04T16:11:14.497Z,17.77
2018-03-04T16:13:43.541Z,11.43
2018-03-04T16:16:20.086Z,11.95
2018-03-04T16:18:46.287Z,13.27
2018-03-04T16:21:12.396Z,11.02
2018-03-04T16:23:39.287Z,13.88
2018-03-04T16:26:05.491Z,11.27
2018-03-04T16:28:31.631Z,10.88
2018-03-04T16:30:57.772Z,11.12
2018-03-04T16:33:24.065Z,12.43
2018-03-04T16:35:50.176Z,9.98
2018-03-04T16:38:17.022Z,8.52
2018-03-04T16:40:43.138Z,7.70
2018-03-04T16:43:09.265Z,9.00
2018-03-04T16:45:35.364Z,6.90
2018-03-04T16:48:01.534Z,8.18
2018-03-04T16:50:27.767Z,9.02
2018-03-04T16:52:53.886Z,9.73
2018-03-04T16:55:20.821Z,8.77
2018-03-04T16:57:46.949Z,9.55
2018-03-04T17:00:13.185Z,9.85
2018-03-04T17:02:40.058Z,8.45
2018-03-04T17:05:06.164Z,13.32
2018-03-04T17:07:32.295Z,10.57
2018-03-04T17:09:58.426Z,10.77
2018-03-04T17:12:24.627Z,12.85
2018-03-04T17:14:50.760Z,14.00
2018-03-04T17:17:16.872Z,13.18
2018-03-04T17:19:42.993Z,15.00
2018-03-04T17:22:09.130Z,11.05
2018-03-04T17:24:35.285Z,17.95
2018-03-04T17:27:01.483Z,15.70
2018-03-04T17:29:29.314Z,15.38
2018-03-04T17:31:56.064Z,12.43
2018-03-04T17:34:22.157Z,14.43
2018-03-04T17:36:48.991Z,15.15
2018-03-04T17:39:15.097Z,12.93
2018-03-04T17:41:42.387Z,12.15
2018-03-04T17:44:08.660Z,16.48
2018-03-04T17:46:34.768Z,11.55
2018-03-04T17:49:00.856Z,16.83
2018-03-04T17:51:26.964Z,16.35
2018-03-04T17:53:53.145Z,16.08
2018-03-04T17:56:19.625Z,16.20
2018-03-04T17:58:46.312Z,18.98
2018-03-04T18:01:12.633Z,18.65
2018-03-04T18:03:38.886Z,82.53
2018-03-04T18:06:05.054Z,27.17
2018-03-04T18:08:31.911Z,25.12
2018-03-04T18:10:58.784Z,22.77
2018-03-04T18:13:25.816Z,21.85
2018-03-04T18:15:51.864Z,19.40
2018-03-04T18:18:18.879Z,20.70
2018-03-04T18:20:45.063Z,16.45
2018-03-04T18:23:11.123Z,18.62
2018-03-04T18:25:37.299Z,19.45
2018-03-04T18:28:04.187Z,19.25
2018-03-04T18:30:30.284Z,18.83
2018-03-04T18:32:56.485Z,21.65
2018-03-04T18:35:23.331Z,23.05
2018-03-04T18:37:49.460Z,23.95
2018-03-04T18:40:15.564Z,24.48
2018-03-04T18:42:41.711Z,24.85
2018-03-04T18:45:08.218Z,27.92
2018-03-04T18:47:34.376Z,32.17
2018-03-04T18:50:00.685Z,31.27
2018-03-04T18:52:28.595Z,28.33
2018-03-04T18:54:55.036Z,28.52
2018-03-04T18:57:22.076Z,32.75
2018-03-04T18:59:48.456Z,32.25
2018-03-04T19:02:14.564Z,27.35
2018-03-04T19:04:40.938Z,24.02
2018-03-04T19:07:07.997Z,31.30
2018-03-04T19:09:34.170Z,30.77
2018-03-04T19:12:00.611Z,30.50
2018-03-04T19:14:27.773Z,29.63
2018-03-04T19:16:54.165Z,29.02
2018-03-04T19:19:20.462Z,27.42
2018-03-04T19:21:51.123Z,31.42
2018-03-04T19:24:17.734Z,29.17
2018-03-04T19:26:44.010Z,30.85
2018-03-04T19:29:12.631Z,24.75
2018-03-04T19:31:39.373Z,30.50
2018-03-04T19:34:06.041Z,31.85
2018-03-04T19:36:32.404Z,30.75
2018-03-04T19:38:59.082Z,25.10
2018-03-04T19:41:25.697Z,27.83
2018-03-04T19:43:52.033Z,28.77
2018-03-04T19:46:19.409Z,32.58
2018-03-04T19:48:45.846Z,33.58
2018-03-04T19:51:12.206Z,25.15
2018-03-04T19:53:39.080Z,27.45
2018-03-04T19:56:06.709Z,31.35
2018-03-04T19:58:33.053Z,26.95
2018-03-04T20:00:59.673Z,26.77
2018-03-04T20:03:26.216Z,32.85
2018-03-04T20:05:52.647Z,33.38
2018-03-04T20:08:18.940Z,35.70
2018-03-04T20:10:45.510Z,32.05
2018-03-04T20:13:11.837Z,34.78
2018-03-04T20:15:38.284Z,32.22
2018-03-04T20:18:05.021Z,37.17
2018-03-04T20:20:31.646Z,33.45
2018-03-04T20:22:58.041Z,29.45
2018-03-04T20:25:25.315Z,30.20
2018-03-04T20:27:51.685Z,37.58
2018-03-04T20:30:18.776Z,28.90
2018-03-04T20:32:45.645Z,29.63
2018-03-04T20:35:11.946Z,36.47
2018-03-04T20:37:39.354Z,38.05
2018-03-04T20:40:07.034Z,34.28
2018-03-04T20:42:33.937Z,31.85
2018-03-04T20:45:00.036Z,35.45
2018-03-04T20:47:26.888Z,34.03
2018-03-04T20:49:53.777Z,32.40
2018-03-04T20:52:19.988Z,36.22
2018-03-04T20:54:46.840Z,38.25
2018-03-04T20:57:13.701Z,29.50
2018-03-04T20:59:40.627Z,35.83
2018-03-04T21:02:06.973Z,34.10
2018-03-04T21:04:33.848Z,27.15
2018-03-04T21:07:00.031Z,31.95
2018-03-04T21:09:26.251Z,32.03
2018-03-04T21:11:53.113Z,32.75
2018-03-04T21:14:19.230Z,35.53
2018-03-04T21:16:45.333Z,35.03
2018-03-04T21:19:11.440Z,28.30
2018-03-04T21:21:37.766Z,31.55
2018-03-04T21:24:03.903Z,29.60
2018-03-04T21:26:31.011Z,30.75
2018-03-04T21:28:57.151Z,30.37
2018-03-04T21:31:23.237Z,32.65
2018-03-04T21:33:49.553Z,33.90
2018-03-04T21:36:15.923Z,32.80
2018-03-04T21:38:42.274Z,35.42
2018-03-04T21:41:08.756Z,31.10
2018-03-04T21:43:35.205Z,38.95
2018-03-04T21:46:01.716Z,30.50
2018-03-04T21:48:28.791Z,33.28
2018-03-04T21:50:55.970Z,38.67
2018-03-04T21:53:22.969Z,29.70
2018-03-04T21:55:49.279Z,28.75
2018-03-04T21:58:15.605Z,33.30
2018-03-04T22:00:42.704Z,31.25
2018-03-04T22:03:09.491Z,26.12
2018-03-04T22:05:35.890Z,28.77
2018-03-04T22:08:02.188Z,36.72
2018-03-04T22:10:28.512Z,29.92
2018-03-04T22:12:54.832Z,24.73
2018-03-04T22:15:21.161Z,28.98
2018-03-04T22:17:48.256Z,30.88
2018-03-04T22:20:14.623Z,27.50
2018-03-04T22:22:41.666Z,26.37
2018-03-04T22:25:07.788Z,22.35
2018-03-04T22:27:33.954Z,24.37
2018-03-04T22:30:00.089Z,24.08
2018-03-04T22:32:26.305Z,23.17
2018-03-04T22:34:52.622Z,24.42
2018-03-04T22:37:19.471Z,27.35
2018-03-04T22:39:45.840Z,21.75
2018-03-04T22:42:12.148Z,22.85
2018-03-04T22:44:38.495Z,21.20
2018-03-04T22:47:04.800Z,27.83
2018-03-04T22:49:31.091Z,26.80
2018-03-04T22:51:58.062Z,23.52
2018-03-04T22:54:24.922Z,21.50
2018-03-04T22:56:51.804Z,22.58
2018-03-04T22:59:17.960Z,18.50
2018-03-04T23:01:44.160Z,22.48
2018-03-04T23:04:11.020Z,23.92
2018-03-04T23:06:37.148Z,19.95
2018-03-04T23:09:04.028Z,20.02
2018-03-04T23:11:30.139Z,16.60
2018-03-04T23:13:56.247Z,26.40
2018-03-04T23:16:22.364Z,17.70
2018-03-04T23:18:50.631Z,19.67
2018-03-04T23:21:17.435Z,17.75
2018-03-04T23:23:43.736Z,13.57
2018-03-04T23:26:10.113Z,17.90
2018-03-04T23:28:36.439Z,15.68
2018-03-04T23:31:03.485Z,16.08
2018-03-04T23:33:29.828Z,17.85
2018-03-04T23:35:56.175Z,16.08
2018-03-04T23:38:23.285Z,16.00
2018-03-04T23:40:49.600Z,18.20
2018-03-04T23:43:16.714Z,12.50
2018-03-04T23:45:43.490Z,16.20
2018-03-04T23:48:09.904Z,9.57
2018-03-04T23:50:36.361Z,12.57
2018-03-04T23:53:03.387Z,11.48
2018-03-04T23:55:32.467Z,9.90
2018-03-04T23:57:58.819Z,12.00
